Terminal Aerodrome Forecast
Issued by NWS Twin Cities, MN

Home | Current Version | Previous Version | Graphics & Text | Print | Product List | Glossary On
Versions: 1 2 3 4 5 6 7 8 9 10 11 12 13 14 15 16 17 18 19 20 21 22 23 24
796
FTUS43 KMPX 201500 AAA
TAFMSP
TAF AMD
KMSP 201500Z 2015/2118 16008KT P6SM BKN250
     FM201800 20010KT P6SM BKN150
     FM210200 23009KT P6SM BKN150
     FM210400 26010G17KT P6SM SCT200
     FM210900 29015G25KT P6SM BKN050
     FM211200 30019G30KT P6SM OVC050=

USA.gov is the U.S. government's official web portal to all federal, state and local government web resources and services.